createdAt,value
2023-05-24T00:00:35.673Z,62.30
2023-05-24T00:03:04.690Z,61.80
2023-05-24T00:05:31.945Z,62.10
2023-05-24T00:07:59.358Z,62.00
2023-05-24T00:10:26.412Z,61.90
2023-05-24T00:12:53.221Z,62.80
2023-05-24T00:15:20.086Z,64.00
2023-05-24T00:17:47.400Z,64.50
2023-05-24T00:20:14.508Z,64.00
2023-05-24T00:22:42.015Z,63.60
2023-05-24T00:25:09.183Z,63.50
2023-05-24T00:27:37.306Z,63.90
2023-05-24T00:30:05.642Z,64.10
2023-05-24T00:32:32.449Z,63.60
2023-05-24T00:34:59.330Z,63.70
2023-05-24T00:37:26.453Z,64.20
2023-05-24T00:39:53.200Z,63.90
2023-05-24T00:42:19.945Z,64.50
2023-05-24T00:44:46.722Z,64.50
2023-05-24T00:47:13.564Z,63.40
2023-05-24T00:49:40.893Z,63.10
2023-05-24T00:52:08.975Z,63.20
2023-05-24T00:54:35.949Z,62.50
2023-05-24T00:57:02.880Z,62.90
2023-05-24T00:59:29.916Z,63.60
2023-05-24T01:01:56.798Z,63.90
2023-05-24T01:04:23.723Z,64.40
2023-05-24T01:06:59.280Z,64.60
2023-05-24T01:09:45.644Z,65.90
2023-05-24T01:12:38.854Z,66.20
2023-05-24T01:15:28.256Z,66.50
2023-05-24T01:18:26.089Z,66.40
2023-05-24T01:21:18.956Z,66.20
2023-05-24T01:24:11.183Z,67.00
2023-05-24T01:26:44.378Z,66.20
2023-05-24T01:29:13.099Z,66.50
2023-05-24T01:31:40.002Z,67.40
2023-05-24T01:34:06.967Z,66.80
2023-05-24T01:36:33.670Z,66.50
2023-05-24T01:39:00.497Z,66.50
2023-05-24T01:41:59.722Z,66.40
2023-05-24T01:44:32.716Z,63.90
2023-05-24T01:47:11.940Z,63.10
2023-05-24T01:49:43.984Z,61.80
2023-05-24T01:52:17.075Z,60.20
2023-05-24T01:54:50.503Z,59.40
2023-05-24T01:57:19.825Z,59.10
2023-05-24T01:59:47.869Z,58.10
2023-05-24T02:02:15.045Z,58.00
2023-05-24T02:04:59.412Z,58.40
2023-05-24T02:07:26.798Z,58.50
2023-05-24T02:09:53.566Z,58.60
2023-05-24T02:12:20.371Z,58.20
2023-05-24T02:14:50.958Z,57.50
2023-05-24T02:17:18.660Z,56.10
2023-05-24T02:19:45.625Z,55.00
2023-05-24T02:22:13.016Z,54.10
2023-05-24T02:24:40.484Z,54.30
2023-05-24T02:27:07.274Z,53.90
2023-05-24T02:29:34.062Z,53.40
2023-05-24T02:32:00.823Z,53.30
2023-05-24T02:34:27.625Z,54.20
2023-05-24T02:36:54.401Z,54.10
2023-05-24T02:39:21.429Z,53.90
2023-05-24T02:41:48.227Z,53.90
2023-05-24T02:44:15.050Z,53.60
2023-05-24T02:46:41.891Z,53.10
2023-05-24T02:49:09.971Z,53.30
2023-05-24T02:51:39.720Z,53.20
2023-05-24T02:54:06.623Z,53.10
2023-05-24T02:56:34.747Z,53.00
2023-05-24T02:59:01.553Z,53.40
2023-05-24T03:01:28.335Z,54.00
2023-05-24T03:03:55.252Z,53.50
2023-05-24T03:06:22.104Z,53.90
2023-05-24T03:08:49.802Z,54.40
2023-05-24T03:11:16.825Z,55.00
2023-05-24T03:13:44.380Z,55.10
2023-05-24T03:16:11.244Z,55.40
2023-05-24T03:18:38.041Z,55.00
2023-05-24T03:21:05.090Z,56.30
2023-05-24T03:23:31.892Z,56.30
2023-05-24T03:25:58.866Z,56.10
2023-05-24T03:28:25.665Z,56.30
2023-05-24T03:30:52.440Z,56.40
2023-05-24T03:33:19.288Z,56.00
2023-05-24T03:35:46.211Z,56.40
2023-05-24T03:38:13.005Z,56.30
2023-05-24T03:40:39.792Z,55.60
2023-05-24T03:43:06.719Z,56.00
2023-05-24T03:45:39.109Z,56.60
2023-05-24T03:48:06.857Z,56.90
2023-05-24T03:50:33.634Z,57.10
2023-05-24T03:53:00.485Z,57.50
2023-05-24T03:55:27.272Z,56.70
2023-05-24T03:57:54.120Z,57.40
2023-05-24T04:00:21.190Z,57.90
2023-05-24T04:02:48.074Z,57.40
2023-05-24T04:05:14.864Z,57.60
2023-05-24T04:07:42.387Z,57.80
2023-05-24T04:10:09.433Z,58.20
2023-05-24T04:12:36.224Z,58.20
2023-05-24T04:15:03.266Z,58.10
2023-05-24T04:17:34.919Z,59.20
2023-05-24T04:20:02.192Z,59.50
2023-05-24T04:22:30.634Z,60.40
2023-05-24T04:24:57.418Z,60.00
2023-05-24T04:27:26.171Z,59.70
2023-05-24T04:29:54.436Z,58.80
2023-05-24T04:32:21.387Z,58.90
2023-05-24T04:34:48.147Z,58.20
2023-05-24T04:37:17.177Z,58.20
2023-05-24T04:39:45.295Z,58.10
2023-05-24T04:42:13.159Z,58.10
2023-05-24T04:44:43.147Z,58.20
2023-05-24T04:47:10.761Z,58.10
2023-05-24T04:49:37.833Z,57.70
2023-05-24T04:52:05.026Z,56.80
2023-05-24T04:54:32.198Z,56.90
2023-05-24T04:56:59.032Z,56.20
2023-05-24T04:59:25.794Z,55.70
2023-05-24T05:01:52.674Z,55.00
2023-05-24T05:04:19.546Z,54.70
2023-05-24T05:06:47.692Z,54.60
2023-05-24T05:09:15.913Z,54.30
2023-05-24T05:11:43.299Z,53.90
2023-05-24T05:14:10.518Z,53.30
2023-05-24T05:16:38.442Z,53.50
2023-05-24T05:19:06.060Z,54.30
2023-05-24T05:21:33.867Z,55.00
2023-05-24T05:24:01.445Z,54.60
2023-05-24T05:26:28.954Z,53.60
2023-05-24T05:28:56.663Z,52.50
2023-05-24T05:31:24.028Z,52.10
2023-05-24T05:33:51.156Z,52.60
2023-05-24T05:36:19.236Z,53.40
2023-05-24T05:38:46.610Z,52.50
2023-05-24T05:41:13.448Z,52.00
2023-05-24T05:43:40.520Z,52.40
2023-05-24T05:46:07.465Z,52.00
2023-05-24T05:48:34.306Z,52.60
2023-05-24T05:51:01.149Z,51.90
2023-05-24T05:53:27.925Z,50.70
2023-05-24T05:55:54.754Z,50.80
2023-05-24T05:58:21.563Z,50.70
2023-05-24T06:00:48.309Z,50.60
2023-05-24T06:03:15.404Z,49.30
2023-05-24T06:05:42.321Z,49.50
2023-05-24T06:08:09.099Z,48.70
2023-05-24T06:10:35.965Z,49.10
2023-05-24T06:13:04.350Z,48.80
2023-05-24T06:15:33.294Z,49.00
2023-05-24T06:18:02.286Z,48.30
2023-05-24T06:20:29.335Z,48.20
2023-05-24T06:22:57.186Z,47.90
2023-05-24T06:25:24.554Z,47.50
2023-05-24T06:27:51.898Z,47.70
2023-05-24T06:30:18.959Z,47.00
2023-05-24T06:32:46.078Z,47.80
2023-05-24T06:35:13.077Z,46.80
2023-05-24T06:37:39.998Z,45.50
2023-05-24T06:40:09.907Z,45.20
2023-05-24T06:42:37.193Z,44.60
2023-05-24T06:45:04.191Z,43.90
2023-05-24T06:47:31.071Z,43.60
2023-05-24T06:49:58.109Z,43.00
2023-05-24T06:52:24.819Z,42.70
2023-05-24T06:54:52.396Z,42.20
2023-05-24T06:57:19.139Z,42.30
2023-05-24T06:59:46.010Z,41.30
2023-05-24T07:02:12.825Z,40.20
2023-05-24T07:04:41.250Z,40.90
2023-05-24T07:07:09.112Z,39.90
2023-05-24T07:09:35.878Z,39.50
2023-05-24T07:12:02.766Z,38.70
2023-05-24T07:14:29.539Z,38.90
2023-05-24T07:16:59.738Z,38.00
2023-05-24T07:19:29.403Z,38.50
2023-05-24T07:21:56.901Z,37.90
2023-05-24T07:24:24.181Z,38.20
2023-05-24T07:26:52.623Z,38.70
2023-05-24T07:29:19.744Z,38.90
2023-05-24T07:31:46.593Z,38.60
2023-05-24T07:34:13.454Z,38.30
2023-05-24T07:36:42.265Z,38.30
2023-05-24T07:39:15.672Z,38.60
2023-05-24T07:41:42.565Z,38.30
2023-05-24T07:44:09.350Z,38.70
2023-05-24T07:46:36.100Z,38.70
2023-05-24T07:49:02.820Z,38.30
2023-05-24T07:51:29.576Z,37.70
2023-05-24T07:53:56.380Z,38.00
2023-05-24T07:56:23.833Z,38.10
2023-05-24T07:58:51.832Z,38.70
2023-05-24T08:01:19.232Z,38.70
2023-05-24T08:03:46.531Z,38.40
2023-05-24T08:06:13.545Z,38.60
2023-05-24T08:08:41.076Z,38.40
2023-05-24T08:11:10.837Z,38.70
2023-05-24T08:13:37.858Z,38.60
2023-05-24T08:16:04.655Z,38.60
2023-05-24T08:18:31.441Z,39.30
2023-05-24T08:20:58.244Z,37.20
2023-05-24T08:23:25.005Z,37.10
2023-05-24T08:25:51.915Z,37.60
2023-05-24T08:28:18.783Z,37.60
2023-05-24T08:30:45.683Z,40.10
2023-05-24T08:33:12.475Z,40.10
2023-05-24T08:35:39.381Z,39.60
2023-05-24T08:38:06.996Z,38.50
2023-05-24T08:40:33.807Z,38.10
2023-05-24T08:43:02.045Z,38.20
2023-05-24T08:45:36.787Z,38.80
2023-05-24T08:48:05.380Z,37.90
2023-05-24T08:50:33.226Z,36.80
2023-05-24T08:53:02.871Z,38.20
2023-05-24T08:55:33.454Z,39.70
2023-05-24T08:58:01.134Z,40.00
2023-05-24T09:00:28.012Z,39.20
2023-05-24T09:02:56.152Z,39.00
2023-05-24T09:05:23.795Z,38.60
2023-05-24T09:07:51.135Z,37.70
2023-05-24T09:10:21.480Z,37.10
2023-05-24T09:12:56.169Z,37.40
2023-05-24T09:15:23.151Z,39.30
2023-05-24T09:17:50.110Z,35.50
2023-05-24T09:20:17.806Z,35.80
2023-05-24T09:22:48.755Z,34.90
2023-05-24T09:25:15.753Z,34.70
2023-05-24T09:27:45.048Z,34.90
2023-05-24T09:30:14.993Z,34.40
2023-05-24T09:32:41.913Z,34.20
2023-05-24T09:35:12.668Z,32.80
2023-05-24T09:37:40.374Z,32.40
2023-05-24T09:40:12.008Z,34.00
2023-05-24T09:42:38.771Z,33.80
2023-05-24T09:45:11.982Z,33.20
2023-05-24T09:47:40.845Z,33.50
2023-05-24T09:50:13.811Z,33.30
2023-05-24T09:52:41.926Z,33.60
2023-05-24T09:55:16.331Z,32.90
2023-05-24T09:58:03.112Z,32.20
2023-05-24T10:00:31.001Z,32.40
2023-05-24T10:03:08.332Z,32.70
2023-05-24T10:05:37.133Z,30.90
2023-05-24T10:08:09.666Z,32.10
2023-05-24T10:10:36.620Z,32.70
2023-05-24T10:13:05.397Z,33.40
2023-05-24T10:15:32.382Z,34.00
2023-05-24T10:18:09.836Z,34.80
2023-05-24T10:20:42.105Z,34.50
2023-05-24T10:23:10.881Z,35.10
2023-05-24T10:25:44.766Z,34.60
2023-05-24T10:28:14.031Z,33.00
2023-05-24T10:31:01.633Z,33.20
2023-05-24T10:33:30.176Z,31.80
2023-05-24T10:35:57.457Z,30.30
2023-05-24T10:38:25.040Z,30.10
2023-05-24T10:40:52.128Z,30.10
2023-05-24T10:43:19.436Z,29.40
2023-05-24T10:45:49.978Z,29.60
2023-05-24T10:48:17.204Z,28.20
2023-05-24T10:50:44.887Z,28.40
2023-05-24T10:53:19.235Z,29.10
2023-05-24T10:55:57.776Z,28.90
2023-05-24T10:58:47.954Z,29.00
2023-05-24T11:01:34.951Z,28.40
2023-05-24T11:04:08.793Z,28.10
2023-05-24T11:06:57.049Z,28.30
2023-05-24T11:09:24.850Z,28.70
2023-05-24T11:11:56.228Z,29.10
2023-05-24T11:14:27.549Z,28.60
2023-05-24T11:16:55.229Z,28.90
2023-05-24T11:19:34.332Z,29.20
2023-05-24T11:22:04.880Z,29.00
2023-05-24T11:24:33.019Z,28.40
2023-05-24T11:27:02.423Z,28.70
2023-05-24T11:29:30.655Z,29.20
2023-05-24T11:32:01.389Z,29.00
2023-05-24T11:34:28.344Z,30.00
2023-05-24T11:36:55.572Z,30.00
2023-05-24T11:39:23.781Z,29.80
2023-05-24T11:41:50.856Z,29.70
2023-05-24T11:44:21.562Z,29.50
2023-05-24T11:46:48.530Z,29.30
2023-05-24T11:49:16.651Z,28.40
2023-05-24T11:51:43.947Z,28.90
2023-05-24T11:54:11.870Z,28.20
2023-05-24T11:56:38.827Z,27.70
2023-05-24T11:59:18.168Z,28.40
2023-05-24T12:01:45.101Z,28.90
2023-05-24T12:04:12.985Z,29.00
2023-05-24T12:06:42.026Z,28.50
2023-05-24T12:09:13.337Z,29.40
2023-05-24T12:11:42.150Z,29.00
2023-05-24T12:14:19.607Z,28.30
2023-05-24T12:16:47.261Z,29.00
2023-05-24T12:19:31.396Z,28.20
2023-05-24T12:21:59.810Z,28.20
2023-05-24T12:24:28.156Z,28.10
2023-05-24T12:27:03.193Z,27.80
2023-05-24T12:29:39.787Z,27.60
2023-05-24T12:32:12.293Z,27.80
2023-05-24T12:34:44.222Z,27.40
2023-05-24T12:37:13.014Z,26.90
2023-05-24T12:39:42.762Z,27.10
2023-05-24T12:42:12.158Z,27.80
2023-05-24T12:44:39.467Z,26.90
2023-05-24T12:47:08.342Z,27.70
2023-05-24T12:49:35.723Z,28.90
2023-05-24T12:52:02.528Z,28.70
2023-05-24T12:54:30.024Z,28.00
2023-05-24T12:56:59.782Z,27.80
2023-05-24T12:59:28.310Z,28.40
2023-05-24T13:01:55.620Z,28.30
2023-05-24T13:04:24.479Z,27.90
2023-05-24T13:06:51.395Z,28.40
2023-05-24T13:09:19.281Z,27.50
2023-05-24T13:11:46.876Z,27.10
2023-05-24T13:14:15.447Z,27.40
2023-05-24T13:16:42.559Z,28.30
2023-05-24T13:19:10.358Z,27.80
2023-05-24T13:21:38.167Z,28.10
2023-05-24T13:24:06.502Z,28.30
2023-05-24T13:26:38.077Z,29.00
2023-05-24T13:31:38.176Z,28.30
2023-05-24T13:34:05.757Z,28.40
2023-05-24T13:36:33.264Z,28.10
2023-05-24T13:41:30.672Z,28.00
2023-05-24T13:43:57.664Z,27.40
2023-05-24T13:46:24.472Z,28.10
2023-05-24T13:48:51.596Z,28.70
2023-05-24T13:51:19.689Z,30.00
2023-05-24T13:53:47.823Z,30.70
2023-05-24T13:56:15.714Z,30.40
2023-05-24T13:58:42.879Z,29.90
2023-05-24T14:01:10.592Z,30.20
2023-05-24T14:03:39.684Z,30.10
2023-05-24T14:06:07.824Z,30.00
2023-05-24T14:08:35.198Z,30.40
2023-05-24T14:11:02.193Z,30.90
2023-05-24T14:15:58.743Z,31.10
2023-05-24T14:18:25.943Z,31.20
2023-05-24T14:20:52.812Z,30.60
2023-05-24T14:23:19.603Z,31.60
2023-05-24T14:25:47.035Z,31.10
2023-05-24T14:28:13.994Z,31.00
2023-05-24T14:30:42.053Z,30.90
2023-05-24T14:33:11.626Z,30.70
2023-05-24T14:35:39.910Z,31.10
2023-05-24T14:38:08.785Z,31.20
2023-05-24T14:40:37.677Z,31.40
2023-05-24T14:43:05.230Z,31.30
2023-05-24T14:45:32.563Z,32.10
2023-05-24T14:48:00.938Z,32.30
2023-05-24T14:50:28.050Z,32.30
2023-05-24T14:52:55.821Z,32.40
2023-05-24T14:55:22.914Z,33.00
2023-05-24T14:57:50.033Z,33.40
2023-05-24T15:00:20.535Z,33.50
2023-05-24T15:02:49.298Z,33.60
2023-05-24T15:05:16.785Z,33.40
2023-05-24T15:07:43.576Z,33.50
2023-05-24T15:10:12.608Z,34.40
2023-05-24T15:12:39.422Z,34.80
2023-05-24T15:15:07.881Z,35.30
2023-05-24T15:17:34.752Z,35.30
2023-05-24T15:20:01.711Z,35.10
2023-05-24T15:22:28.574Z,34.90
2023-05-24T15:24:55.347Z,34.90
2023-05-24T15:27:22.183Z,34.30
2023-05-24T15:29:48.962Z,34.80
2023-05-24T15:32:15.869Z,34.90
2023-05-24T15:34:42.709Z,35.40
2023-05-24T15:37:09.496Z,35.40
2023-05-24T15:39:36.934Z,35.00
2023-05-24T15:42:03.847Z,35.30
2023-05-24T15:44:30.939Z,35.90
2023-05-24T15:46:57.870Z,35.50
2023-05-24T15:49:25.650Z,35.80
2023-05-24T15:54:22.149Z,36.10
2023-05-24T15:56:49.918Z,36.20
2023-05-24T15:59:16.749Z,36.30
2023-05-24T16:01:43.519Z,37.10
2023-05-24T16:04:10.509Z,37.40
2023-05-24T16:06:37.937Z,36.90
2023-05-24T16:09:05.355Z,37.70
2023-05-24T16:11:32.140Z,37.40
2023-05-24T16:13:58.923Z,37.70
2023-05-24T16:16:26.725Z,37.50
2023-05-24T16:18:53.545Z,37.30
2023-05-24T16:21:20.279Z,37.20
2023-05-24T16:23:47.206Z,37.40
2023-05-24T16:26:14.062Z,37.40
2023-05-24T16:28:40.851Z,37.50
2023-05-24T16:31:07.786Z,37.20
2023-05-24T16:33:34.602Z,38.40
2023-05-24T16:36:04.409Z,38.40
2023-05-24T16:38:31.327Z,38.10
2023-05-24T16:40:58.186Z,38.40
2023-05-24T16:43:25.957Z,38.10
2023-05-24T16:45:52.964Z,38.60
2023-05-24T16:48:21.675Z,39.50
2023-05-24T16:50:50.443Z,39.20
2023-05-24T16:53:17.282Z,39.40
2023-05-24T16:55:44.392Z,40.00
2023-05-24T16:58:11.147Z,40.30
2023-05-24T17:00:37.932Z,39.90
2023-05-24T17:03:04.802Z,39.40
2023-05-24T17:05:31.677Z,39.60
2023-05-24T17:07:58.730Z,39.60
2023-05-24T17:10:25.712Z,40.00
2023-05-24T17:12:53.284Z,40.60
2023-05-24T17:15:20.277Z,40.60
2023-05-24T17:17:47.555Z,41.10
2023-05-24T17:20:14.762Z,41.60
2023-05-24T17:22:41.623Z,41.90
2023-05-24T17:25:09.081Z,41.70
2023-05-24T17:27:36.252Z,41.20
2023-05-24T17:30:03.270Z,41.10
2023-05-24T17:32:30.137Z,41.40
2023-05-24T17:34:57.133Z,41.60
2023-05-24T17:37:23.901Z,41.50
2023-05-24T17:39:52.348Z,41.50
2023-05-24T17:42:19.621Z,41.60
2023-05-24T17:44:46.412Z,41.60
2023-05-24T17:47:13.198Z,41.60
2023-05-24T17:49:40.093Z,42.20
2023-05-24T17:52:07.219Z,42.10
2023-05-24T17:54:34.186Z,41.70
2023-05-24T17:57:01.798Z,41.80
2023-05-24T17:59:28.752Z,41.80
2023-05-24T18:01:55.493Z,41.40
2023-05-24T18:04:22.346Z,41.40
2023-05-24T18:06:49.104Z,41.80
2023-05-24T18:09:16.968Z,41.70
2023-05-24T18:11:43.713Z,42.30
2023-05-24T18:14:10.830Z,42.00
2023-05-24T18:16:37.793Z,42.10
2023-05-24T18:19:04.663Z,41.40
2023-05-24T18:21:32.493Z,41.50
2023-05-24T18:23:59.271Z,41.80
2023-05-24T18:26:26.281Z,41.80
2023-05-24T18:28:53.032Z,41.50
2023-05-24T18:31:20.520Z,40.60
2023-05-24T18:33:47.411Z,40.50
2023-05-24T18:36:14.371Z,40.70
2023-05-24T18:38:41.336Z,40.70
2023-05-24T18:41:12.163Z,41.00
2023-05-24T18:43:39.425Z,41.10
2023-05-24T18:46:06.373Z,41.40
2023-05-24T18:48:33.099Z,41.50
2023-05-24T18:50:59.873Z,42.60
2023-05-24T18:53:26.757Z,42.30
2023-05-24T18:55:53.531Z,41.90
2023-05-24T18:58:22.573Z,42.20
2023-05-24T19:00:50.600Z,42.50
2023-05-24T19:03:17.606Z,42.60
2023-05-24T19:05:44.749Z,42.50
2023-05-24T19:08:11.529Z,42.60
2023-05-24T19:10:38.284Z,42.80
2023-05-24T19:13:06.498Z,43.10
2023-05-24T19:15:35.868Z,43.40
2023-05-24T19:18:03.417Z,43.60
2023-05-24T19:20:30.238Z,43.70
2023-05-24T19:22:57.167Z,43.70
2023-05-24T19:25:23.881Z,43.30
2023-05-24T19:30:20.574Z,42.80
2023-05-24T19:32:47.464Z,43.00
2023-05-24T19:35:14.363Z,43.40
2023-05-24T19:37:41.170Z,43.10
2023-05-24T19:40:08.452Z,43.00
2023-05-24T19:42:35.268Z,43.50
2023-05-24T19:45:02.123Z,43.80
2023-05-24T19:47:28.909Z,43.70
2023-05-24T19:49:55.792Z,44.40
2023-05-24T19:52:22.607Z,44.50
2023-05-24T19:54:49.529Z,44.90
2023-05-24T19:57:16.325Z,45.30
2023-05-24T19:59:43.220Z,45.30
2023-05-24T20:02:09.984Z,45.10
2023-05-24T20:04:41.834Z,45.80
2023-05-24T20:07:08.909Z,45.10
2023-05-24T20:09:36.014Z,45.00
2023-05-24T20:12:02.946Z,45.10
2023-05-24T20:14:31.677Z,45.00
2023-05-24T20:16:59.184Z,45.20
2023-05-24T20:19:27.160Z,45.60
2023-05-24T20:21:54.093Z,45.60
2023-05-24T20:24:20.941Z,46.00
2023-05-24T20:26:47.784Z,46.20
2023-05-24T20:29:14.610Z,46.00
2023-05-24T20:31:41.520Z,45.90
2023-05-24T20:34:08.493Z,46.00
2023-05-24T20:36:36.416Z,46.00
2023-05-24T20:39:03.270Z,45.40
2023-05-24T20:41:30.609Z,45.70
2023-05-24T20:43:57.471Z,45.10
2023-05-24T20:46:24.431Z,45.30
2023-05-24T20:48:51.647Z,44.70
2023-05-24T20:51:19.397Z,45.10
2023-05-24T20:53:46.850Z,44.60
2023-05-24T20:56:13.651Z,44.40
2023-05-24T20:58:41.458Z,42.90
2023-05-24T21:01:08.731Z,43.20
2023-05-24T21:03:35.986Z,43.00
2023-05-24T21:06:03.001Z,42.10
2023-05-24T21:08:29.853Z,40.30
2023-05-24T21:10:56.957Z,41.10
2023-05-24T21:13:25.461Z,41.20
2023-05-24T21:15:52.389Z,40.90
2023-05-24T21:18:19.120Z,40.60
2023-05-24T21:20:46.229Z,40.90
2023-05-24T21:23:13.053Z,40.70
2023-05-24T21:25:39.934Z,40.10
2023-05-24T21:28:06.701Z,40.00
2023-05-24T21:30:33.472Z,39.60
2023-05-24T21:33:00.333Z,40.10
2023-05-24T21:35:27.886Z,39.90
2023-05-24T21:37:54.724Z,40.10
2023-05-24T21:40:21.579Z,39.80
2023-05-24T21:42:48.338Z,39.70
2023-05-24T21:45:15.333Z,40.00
2023-05-24T21:47:43.084Z,40.10
2023-05-24T21:50:10.202Z,40.00
2023-05-24T21:52:37.195Z,39.60
2023-05-24T21:55:04.231Z,40.10
2023-05-24T21:57:30.967Z,40.30
2023-05-24T21:59:57.798Z,40.30
2023-05-24T22:02:24.547Z,40.40
2023-05-24T22:04:51.371Z,40.10
2023-05-24T22:07:18.553Z,40.60
2023-05-24T22:09:45.834Z,40.80
2023-05-24T22:12:12.635Z,40.40
2023-05-24T22:14:39.375Z,40.30
2023-05-24T22:17:06.558Z,40.00
2023-05-24T22:22:03.278Z,39.10
2023-05-24T22:24:30.130Z,39.00
2023-05-24T22:26:57.016Z,38.60
2023-05-24T22:29:23.800Z,38.40
2023-05-24T22:31:50.718Z,37.70
2023-05-24T22:34:27.355Z,37.90
2023-05-24T22:36:54.560Z,37.60
2023-05-24T22:39:21.775Z,37.80
2023-05-24T22:41:48.734Z,37.50
2023-05-24T22:44:15.898Z,37.20
2023-05-24T22:46:42.876Z,37.20
2023-05-24T22:49:13.124Z,36.80
2023-05-24T22:51:44.368Z,37.00
2023-05-24T22:54:11.774Z,37.00
2023-05-24T22:56:39.121Z,36.70
2023-05-24T22:59:06.755Z,36.70
2023-05-24T23:01:33.865Z,37.00
2023-05-24T23:04:15.729Z,36.40
2023-05-24T23:06:46.550Z,36.60
2023-05-24T23:09:13.378Z,36.40
2023-05-24T23:11:40.207Z,36.60
2023-05-24T23:14:08.991Z,36.80
2023-05-24T23:16:45.493Z,36.80
2023-05-24T23:19:18.096Z,36.80
2023-05-24T23:21:45.018Z,37.10
2023-05-24T23:24:14.473Z,37.30
2023-05-24T23:26:44.136Z,37.60
2023-05-24T23:29:11.349Z,37.70
2023-05-24T23:31:38.227Z,37.60
2023-05-24T23:34:05.808Z,37.70
2023-05-24T23:36:32.672Z,37.70
2023-05-24T23:39:03.389Z,37.50
2023-05-24T23:41:30.125Z,37.70
2023-05-24T23:43:56.881Z,37.30
2023-05-24T23:46:23.834Z,37.70
2023-05-24T23:48:50.843Z,37.40
2023-05-24T23:51:19.456Z,38.10
2023-05-24T23:53:46.322Z,38.10
2023-05-24T23:56:13.065Z,38.30
2023-05-24T23:58:42.010Z,38.70
